sensor_id;sensor_type;location;lat;lon;timestamp;temperature;humidity
10848;DHT22;5477;48.806;9.154;2023-07-31T00:01:06;15.50;99.90
10848;DHT22;5477;48.806;9.154;2023-07-31T00:03:34;15.50;99.90
10848;DHT22;5477;48.806;9.154;2023-07-31T00:06:02;15.40;99.90
10848;DHT22;5477;48.806;9.154;2023-07-31T00:08:30;15.40;99.90
10848;DHT22;5477;48.806;9.154;2023-07-31T00:10:58;15.30;99.90
10848;DHT22;5477;48.806;9.154;2023-07-31T00:13:26;15.30;99.90
10848;DHT22;5477;48.806;9.154;2023-07-31T00:15:54;15.30;99.90
10848;DHT22;5477;48.806;9.154;2023-07-31T00:18:23;15.30;99.90
10848;DHT22;5477;48.806;9.154;2023-07-31T00:20:51;15.20;99.90
10848;DHT22;5477;48.806;9.154;2023-07-31T00:23:19;15.20;99.90
10848;DHT22;5477;48.806;9.154;2023-07-31T00:25:47;15.20;99.90
10848;DHT22;5477;48.806;9.154;2023-07-31T00:28:15;15.20;99.90
10848;DHT22;5477;48.806;9.154;2023-07-31T00:30:43;15.20;99.90
10848;DHT22;5477;48.806;9.154;2023-07-31T00:33:11;15.10;99.90
10848;DHT22;5477;48.806;9.154;2023-07-31T00:35:40;15.10;99.90
10848;DHT22;5477;48.806;9.154;2023-07-31T00:38:08;15.10;99.90
10848;DHT22;5477;48.806;9.154;2023-07-31T00:40:37;15.10;99.90
10848;DHT22;5477;48.806;9.154;2023-07-31T00:43:05;15.10;99.90
10848;DHT22;5477;48.806;9.154;2023-07-31T00:45:34;15.10;99.90
10848;DHT22;5477;48.806;9.154;2023-07-31T00:48:02;15.00;99.90
10848;DHT22;5477;48.806;9.154;2023-07-31T00:50:33;15.00;99.90
10848;DHT22;5477;48.806;9.154;2023-07-31T00:53:03;15.00;99.90
10848;DHT22;5477;48.806;9.154;2023-07-31T00:55:33;15.00;99.90
10848;DHT22;5477;48.806;9.154;2023-07-31T00:58:01;14.90;99.90
10848;DHT22;5477;48.806;9.154;2023-07-31T01:00:29;14.90;99.90
10848;DHT22;5477;48.806;9.154;2023-07-31T01:02:57;14.80;99.90
10848;DHT22;5477;48.806;9.154;2023-07-31T01:05:32;14.70;99.90
10848;DHT22;5477;48.806;9.154;2023-07-31T01:08:09;14.70;99.90
10848;DHT22;5477;48.806;9.154;2023-07-31T01:10:45;14.60;99.90
10848;DHT22;5477;48.806;9.154;2023-07-31T01:13:15;14.50;99.90
10848;DHT22;5477;48.806;9.154;2023-07-31T01:15:43;14.50;99.90
10848;DHT22;5477;48.806;9.154;2023-07-31T01:18:11;14.50;99.90
10848;DHT22;5477;48.806;9.154;2023-07-31T01:20:42;14.50;99.90
10848;DHT22;5477;48.806;9.154;2023-07-31T01:23:33;14.50;99.90
10848;DHT22;5477;48.806;9.154;2023-07-31T01:26:11;14.40;99.90
10848;DHT22;5477;48.806;9.154;2023-07-31T01:28:55;14.50;99.90
10848;DHT22;5477;48.806;9.154;2023-07-31T01:31:25;14.50;99.90
10848;DHT22;5477;48.806;9.154;2023-07-31T01:33:57;14.50;99.90
10848;DHT22;5477;48.806;9.154;2023-07-31T01:36:28;14.50;99.90
10848;DHT22;5477;48.806;9.154;2023-07-31T01:38:58;14.50;99.90
10848;DHT22;5477;48.806;9.154;2023-07-31T01:41:28;14.50;99.90
10848;DHT22;5477;48.806;9.154;2023-07-31T01:43:56;14.40;99.90
10848;DHT22;5477;48.806;9.154;2023-07-31T01:46:24;14.40;99.90
10848;DHT22;5477;48.806;9.154;2023-07-31T01:48:52;14.40;99.90
10848;DHT22;5477;48.806;9.154;2023-07-31T01:51:20;14.40;99.90
10848;DHT22;5477;48.806;9.154;2023-07-31T01:53:48;14.40;99.90
10848;DHT22;5477;48.806;9.154;2023-07-31T01:56:16;14.40;99.90
10848;DHT22;5477;48.806;9.154;2023-07-31T01:58:45;14.40;99.90
10848;DHT22;5477;48.806;9.154;2023-07-31T02:01:13;14.50;99.90
10848;DHT22;5477;48.806;9.154;2023-07-31T02:03:41;14.50;99.90
10848;DHT22;5477;48.806;9.154;2023-07-31T02:06:10;14.60;99.90
10848;DHT22;5477;48.806;9.154;2023-07-31T02:08:38;14.60;99.90
10848;DHT22;5477;48.806;9.154;2023-07-31T02:11:06;14.60;99.90
10848;DHT22;5477;48.806;9.154;2023-07-31T02:13:34;14.60;99.90
10848;DHT22;5477;48.806;9.154;2023-07-31T02:16:03;14.70;99.90
10848;DHT22;5477;48.806;9.154;2023-07-31T02:18:32;14.60;99.90
10848;DHT22;5477;48.806;9.154;2023-07-31T02:21:01;14.60;99.90
10848;DHT22;5477;48.806;9.154;2023-07-31T02:23:29;14.60;99.90
10848;DHT22;5477;48.806;9.154;2023-07-31T02:25:57;14.70;99.90
10848;DHT22;5477;48.806;9.154;2023-07-31T02:28:25;14.60;99.90
10848;DHT22;5477;48.806;9.154;2023-07-31T02:30:53;14.70;99.90
10848;DHT22;5477;48.806;9.154;2023-07-31T02:33:22;14.70;99.90
10848;DHT22;5477;48.806;9.154;2023-07-31T02:35:50;14.60;99.90
10848;DHT22;5477;48.806;9.154;2023-07-31T02:38:18;14.60;99.90
10848;DHT22;5477;48.806;9.154;2023-07-31T02:40:47;14.60;99.90
10848;DHT22;5477;48.806;9.154;2023-07-31T02:43:16;14.60;99.90
10848;DHT22;5477;48.806;9.154;2023-07-31T02:45:44;14.60;99.90
10848;DHT22;5477;48.806;9.154;2023-07-31T02:48:12;14.60;99.90
10848;DHT22;5477;48.806;9.154;2023-07-31T02:50:41;14.60;99.90
10848;DHT22;5477;48.806;9.154;2023-07-31T02:53:09;14.60;99.90
10848;DHT22;5477;48.806;9.154;2023-07-31T02:55:37;14.60;99.90
10848;DHT22;5477;48.806;9.154;2023-07-31T02:58:05;14.70;99.90
10848;DHT22;5477;48.806;9.154;2023-07-31T03:00:33;14.70;99.90
10848;DHT22;5477;48.806;9.154;2023-07-31T03:03:02;14.60;99.90
10848;DHT22;5477;48.806;9.154;2023-07-31T03:05:30;14.60;99.90
10848;DHT22;5477;48.806;9.154;2023-07-31T03:07:59;14.60;99.90
10848;DHT22;5477;48.806;9.154;2023-07-31T03:10:27;14.70;99.90
10848;DHT22;5477;48.806;9.154;2023-07-31T03:12:55;14.60;99.90
10848;DHT22;5477;48.806;9.154;2023-07-31T03:15:23;14.70;99.90
10848;DHT22;5477;48.806;9.154;2023-07-31T03:17:53;14.70;99.90
10848;DHT22;5477;48.806;9.154;2023-07-31T03:20:21;14.80;99.90
10848;DHT22;5477;48.806;9.154;2023-07-31T03:22:49;14.80;99.90
10848;DHT22;5477;48.806;9.154;2023-07-31T03:25:18;14.80;99.90
10848;DHT22;5477;48.806;9.154;2023-07-31T03:27:47;14.70;99.90
10848;DHT22;5477;48.806;9.154;2023-07-31T03:30:15;14.70;99.90
10848;DHT22;5477;48.806;9.154;2023-07-31T03:32:43;14.70;99.90
10848;DHT22;5477;48.806;9.154;2023-07-31T03:35:11;14.70;99.90
10848;DHT22;5477;48.806;9.154;2023-07-31T03:37:39;14.70;99.90
10848;DHT22;5477;48.806;9.154;2023-07-31T03:40:07;14.70;99.90
10848;DHT22;5477;48.806;9.154;2023-07-31T03:42:37;14.70;99.90
10848;DHT22;5477;48.806;9.154;2023-07-31T03:45:06;14.70;99.90
10848;DHT22;5477;48.806;9.154;2023-07-31T03:47:34;14.70;99.90
10848;DHT22;5477;48.806;9.154;2023-07-31T03:50:03;14.80;99.90
10848;DHT22;5477;48.806;9.154;2023-07-31T03:52:31;14.80;99.90
10848;DHT22;5477;48.806;9.154;2023-07-31T03:54:59;14.80;99.90
10848;DHT22;5477;48.806;9.154;2023-07-31T03:57:27;14.80;99.90
10848;DHT22;5477;48.806;9.154;2023-07-31T03:59:56;14.80;99.90
10848;DHT22;5477;48.806;9.154;2023-07-31T04:02:24;14.90;99.90
10848;DHT22;5477;48.806;9.154;2023-07-31T04:04:52;15.00;99.90
10848;DHT22;5477;48.806;9.154;2023-07-31T04:07:20;15.00;99.90
10848;DHT22;5477;48.806;9.154;2023-07-31T04:09:48;15.00;99.90
10848;DHT22;5477;48.806;9.154;2023-07-31T04:12:16;15.10;99.90
10848;DHT22;5477;48.806;9.154;2023-07-31T04:14:44;15.20;99.90
10848;DHT22;5477;48.806;9.154;2023-07-31T04:17:14;15.20;99.90
10848;DHT22;5477;48.806;9.154;2023-07-31T04:19:42;15.20;99.90
10848;DHT22;5477;48.806;9.154;2023-07-31T04:22:10;15.30;99.90
10848;DHT22;5477;48.806;9.154;2023-07-31T04:24:38;15.40;99.90
10848;DHT22;5477;48.806;9.154;2023-07-31T04:27:06;15.40;99.90
10848;DHT22;5477;48.806;9.154;2023-07-31T04:29:34;15.50;99.90
10848;DHT22;5477;48.806;9.154;2023-07-31T04:32:02;15.50;99.90
10848;DHT22;5477;48.806;9.154;2023-07-31T04:34:31;15.50;99.90
10848;DHT22;5477;48.806;9.154;2023-07-31T04:36:59;15.60;99.90
10848;DHT22;5477;48.806;9.154;2023-07-31T04:39:27;15.60;99.90
10848;DHT22;5477;48.806;9.154;2023-07-31T04:41:56;15.60;99.90
10848;DHT22;5477;48.806;9.154;2023-07-31T04:44:23;15.70;99.90
10848;DHT22;5477;48.806;9.154;2023-07-31T04:46:52;15.70;99.90
10848;DHT22;5477;48.806;9.154;2023-07-31T04:49:20;15.70;99.90
10848;DHT22;5477;48.806;9.154;2023-07-31T04:51:50;15.80;99.90
10848;DHT22;5477;48.806;9.154;2023-07-31T04:54:18;15.90;99.90
10848;DHT22;5477;48.806;9.154;2023-07-31T04:56:46;15.90;99.90
10848;DHT22;5477;48.806;9.154;2023-07-31T04:59:14;16.00;99.90
10848;DHT22;5477;48.806;9.154;2023-07-31T05:01:42;16.00;99.90
10848;DHT22;5477;48.806;9.154;2023-07-31T05:04:12;16.00;99.90
10848;DHT22;5477;48.806;9.154;2023-07-31T05:06:41;16.00;99.90
10848;DHT22;5477;48.806;9.154;2023-07-31T05:09:10;16.00;99.90
10848;DHT22;5477;48.806;9.154;2023-07-31T05:11:39;16.00;99.90
10848;DHT22;5477;48.806;9.154;2023-07-31T05:14:09;16.10;99.90
10848;DHT22;5477;48.806;9.154;2023-07-31T05:16:37;16.10;99.90
10848;DHT22;5477;48.806;9.154;2023-07-31T05:19:06;16.10;99.90
10848;DHT22;5477;48.806;9.154;2023-07-31T05:21:34;16.10;99.90
10848;DHT22;5477;48.806;9.154;2023-07-31T05:24:03;16.10;99.90
10848;DHT22;5477;48.806;9.154;2023-07-31T05:26:32;16.10;99.90
10848;DHT22;5477;48.806;9.154;2023-07-31T05:29:00;16.10;99.90
10848;DHT22;5477;48.806;9.154;2023-07-31T05:31:28;16.20;99.90
10848;DHT22;5477;48.806;9.154;2023-07-31T05:33:56;16.20;99.90
10848;DHT22;5477;48.806;9.154;2023-07-31T05:36:24;16.30;99.90
10848;DHT22;5477;48.806;9.154;2023-07-31T05:38:52;16.40;99.90
10848;DHT22;5477;48.806;9.154;2023-07-31T05:41:19;16.50;99.90
10848;DHT22;5477;48.806;9.154;2023-07-31T05:43:49;16.50;99.90
10848;DHT22;5477;48.806;9.154;2023-07-31T05:46:18;16.60;99.90
10848;DHT22;5477;48.806;9.154;2023-07-31T05:48:46;16.70;99.90
10848;DHT22;5477;48.806;9.154;2023-07-31T05:51:14;16.70;99.90
10848;DHT22;5477;48.806;9.154;2023-07-31T05:53:42;16.80;99.90
10848;DHT22;5477;48.806;9.154;2023-07-31T05:56:10;16.90;99.90
10848;DHT22;5477;48.806;9.154;2023-07-31T05:58:38;16.90;99.90
10848;DHT22;5477;48.806;9.154;2023-07-31T06:01:07;17.00;99.90
10848;DHT22;5477;48.806;9.154;2023-07-31T06:03:35;17.00;99.90
10848;DHT22;5477;48.806;9.154;2023-07-31T06:06:03;17.10;99.90
10848;DHT22;5477;48.806;9.154;2023-07-31T06:08:32;17.20;99.90
10848;DHT22;5477;48.806;9.154;2023-07-31T06:11:00;17.30;99.90
10848;DHT22;5477;48.806;9.154;2023-07-31T06:13:28;17.40;99.90
10848;DHT22;5477;48.806;9.154;2023-07-31T06:15:56;17.50;99.90
10848;DHT22;5477;48.806;9.154;2023-07-31T06:18:25;17.70;99.90
10848;DHT22;5477;48.806;9.154;2023-07-31T06:20:53;17.90;99.90
10848;DHT22;5477;48.806;9.154;2023-07-31T06:23:21;18.10;99.90
10848;DHT22;5477;48.806;9.154;2023-07-31T06:25:49;18.30;99.90
10848;DHT22;5477;48.806;9.154;2023-07-31T06:28:17;18.40;99.90
10848;DHT22;5477;48.806;9.154;2023-07-31T06:30:45;18.50;99.90
10848;DHT22;5477;48.806;9.154;2023-07-31T06:33:13;18.70;99.90
10848;DHT22;5477;48.806;9.154;2023-07-31T06:35:43;18.70;99.90
10848;DHT22;5477;48.806;9.154;2023-07-31T06:38:12;18.80;99.90
10848;DHT22;5477;48.806;9.154;2023-07-31T06:40:40;18.90;99.90
10848;DHT22;5477;48.806;9.154;2023-07-31T06:43:08;18.90;99.90
10848;DHT22;5477;48.806;9.154;2023-07-31T06:45:36;18.90;99.90
10848;DHT22;5477;48.806;9.154;2023-07-31T06:48:05;19.00;99.90
10848;DHT22;5477;48.806;9.154;2023-07-31T06:50:33;19.00;99.90
10848;DHT22;5477;48.806;9.154;2023-07-31T06:53:02;19.00;99.90
10848;DHT22;5477;48.806;9.154;2023-07-31T06:55:30;19.10;99.90
10848;DHT22;5477;48.806;9.154;2023-07-31T06:57:58;19.30;99.90
10848;DHT22;5477;48.806;9.154;2023-07-31T07:00:27;19.40;99.90
10848;DHT22;5477;48.806;9.154;2023-07-31T07:02:55;19.40;99.90
10848;DHT22;5477;48.806;9.154;2023-07-31T07:05:23;19.40;99.90
10848;DHT22;5477;48.806;9.154;2023-07-31T07:07:51;19.50;99.90
10848;DHT22;5477;48.806;9.154;2023-07-31T07:10:21;19.50;99.90
10848;DHT22;5477;48.806;9.154;2023-07-31T07:12:49;19.50;99.90
10848;DHT22;5477;48.806;9.154;2023-07-31T07:15:17;19.50;99.90
10848;DHT22;5477;48.806;9.154;2023-07-31T07:17:45;19.60;99.90
10848;DHT22;5477;48.806;9.154;2023-07-31T07:20:13;19.60;99.90
10848;DHT22;5477;48.806;9.154;2023-07-31T07:22:41;19.80;99.90
10848;DHT22;5477;48.806;9.154;2023-07-31T07:25:10;19.90;99.90
10848;DHT22;5477;48.806;9.154;2023-07-31T07:27:40;19.80;99.90
10848;DHT22;5477;48.806;9.154;2023-07-31T07:30:08;19.90;99.90
10848;DHT22;5477;48.806;9.154;2023-07-31T07:32:36;19.90;99.90
10848;DHT22;5477;48.806;9.154;2023-07-31T07:35:05;19.90;99.90
10848;DHT22;5477;48.806;9.154;2023-07-31T07:37:33;19.80;99.90
10848;DHT22;5477;48.806;9.154;2023-07-31T07:40:02;19.80;99.90
10848;DHT22;5477;48.806;9.154;2023-07-31T07:42:30;19.90;99.90
10848;DHT22;5477;48.806;9.154;2023-07-31T07:44:59;19.90;99.90
10848;DHT22;5477;48.806;9.154;2023-07-31T07:47:27;20.00;99.90
10848;DHT22;5477;48.806;9.154;2023-07-31T07:49:55;20.10;99.90
10848;DHT22;5477;48.806;9.154;2023-07-31T07:52:23;20.00;99.90
10848;DHT22;5477;48.806;9.154;2023-07-31T07:54:51;20.10;99.90
10848;DHT22;5477;48.806;9.154;2023-07-31T07:57:19;20.20;99.90
10848;DHT22;5477;48.806;9.154;2023-07-31T07:59:47;20.20;99.90
10848;DHT22;5477;48.806;9.154;2023-07-31T08:02:16;20.20;99.90
10848;DHT22;5477;48.806;9.154;2023-07-31T08:04:44;20.30;99.90
10848;DHT22;5477;48.806;9.154;2023-07-31T08:07:12;20.40;99.90
10848;DHT22;5477;48.806;9.154;2023-07-31T08:09:40;20.60;99.90
10848;DHT22;5477;48.806;9.154;2023-07-31T08:12:08;20.50;99.90
10848;DHT22;5477;48.806;9.154;2023-07-31T08:14:36;20.60;99.90
10848;DHT22;5477;48.806;9.154;2023-07-31T08:17:04;20.70;99.90
10848;DHT22;5477;48.806;9.154;2023-07-31T08:19:34;20.80;99.90
10848;DHT22;5477;48.806;9.154;2023-07-31T08:22:02;20.80;99.90
10848;DHT22;5477;48.806;9.154;2023-07-31T08:24:31;20.90;99.90
10848;DHT22;5477;48.806;9.154;2023-07-31T08:26:59;21.00;99.90
10848;DHT22;5477;48.806;9.154;2023-07-31T08:29:27;20.90;99.90
10848;DHT22;5477;48.806;9.154;2023-07-31T08:31:55;20.90;99.90
10848;DHT22;5477;48.806;9.154;2023-07-31T08:34:23;21.00;99.90
10848;DHT22;5477;48.806;9.154;2023-07-31T08:36:52;21.30;99.90
10848;DHT22;5477;48.806;9.154;2023-07-31T08:39:21;21.60;99.90
10848;DHT22;5477;48.806;9.154;2023-07-31T08:41:48;21.60;99.90
10848;DHT22;5477;48.806;9.154;2023-07-31T08:44:17;21.50;99.90
10848;DHT22;5477;48.806;9.154;2023-07-31T08:46:46;21.30;99.90
10848;DHT22;5477;48.806;9.154;2023-07-31T08:49:15;21.20;99.90
10848;DHT22;5477;48.806;9.154;2023-07-31T08:51:46;21.30;99.90
10848;DHT22;5477;48.806;9.154;2023-07-31T08:54:18;21.50;99.90
10848;DHT22;5477;48.806;9.154;2023-07-31T08:56:46;21.70;99.90
10848;DHT22;5477;48.806;9.154;2023-07-31T08:59:15;21.90;99.90
10848;DHT22;5477;48.806;9.154;2023-07-31T09:01:50;22.00;99.90
10848;DHT22;5477;48.806;9.154;2023-07-31T09:04:21;22.00;99.90
10848;DHT22;5477;48.806;9.154;2023-07-31T09:06:51;22.10;99.90
10848;DHT22;5477;48.806;9.154;2023-07-31T09:09:23;22.20;99.90
10848;DHT22;5477;48.806;9.154;2023-07-31T09:11:52;22.10;99.90
10848;DHT22;5477;48.806;9.154;2023-07-31T09:14:20;21.90;99.90
10848;DHT22;5477;48.806;9.154;2023-07-31T09:16:53;22.10;99.90
10848;DHT22;5477;48.806;9.154;2023-07-31T09:19:25;22.10;99.90
10848;DHT22;5477;48.806;9.154;2023-07-31T09:21:54;22.10;99.90
10848;DHT22;5477;48.806;9.154;2023-07-31T09:24:27;22.10;99.90
10848;DHT22;5477;48.806;9.154;2023-07-31T09:26:57;22.10;99.90
10848;DHT22;5477;48.806;9.154;2023-07-31T09:29:27;22.20;99.90
10848;DHT22;5477;48.806;9.154;2023-07-31T09:31:56;22.10;99.90
10848;DHT22;5477;48.806;9.154;2023-07-31T09:34:30;22.00;99.90
10848;DHT22;5477;48.806;9.154;2023-07-31T09:37:01;21.90;99.90
10848;DHT22;5477;48.806;9.154;2023-07-31T09:39:31;21.80;99.90
10848;DHT22;5477;48.806;9.154;2023-07-31T09:42:00;21.70;99.90
10848;DHT22;5477;48.806;9.154;2023-07-31T09:44:37;21.70;99.90
10848;DHT22;5477;48.806;9.154;2023-07-31T09:47:06;21.80;99.90
10848;DHT22;5477;48.806;9.154;2023-07-31T09:49:34;22.20;99.90
10848;DHT22;5477;48.806;9.154;2023-07-31T09:52:11;22.40;99.90
10848;DHT22;5477;48.806;9.154;2023-07-31T09:54:41;22.60;99.90
10848;DHT22;5477;48.806;9.154;2023-07-31T09:57:09;22.80;99.90
10848;DHT22;5477;48.806;9.154;2023-07-31T09:59:38;23.10;99.90
10848;DHT22;5477;48.806;9.154;2023-07-31T10:02:09;23.20;99.90
10848;DHT22;5477;48.806;9.154;2023-07-31T10:04:43;23.00;99.90
10848;DHT22;5477;48.806;9.154;2023-07-31T10:07:13;22.70;99.90
10848;DHT22;5477;48.806;9.154;2023-07-31T10:09:43;22.70;99.90
10848;DHT22;5477;48.806;9.154;2023-07-31T10:12:12;22.50;99.90
10848;DHT22;5477;48.806;9.154;2023-07-31T10:14:42;22.30;99.90
10848;DHT22;5477;48.806;9.154;2023-07-31T10:17:11;22.30;99.90
10848;DHT22;5477;48.806;9.154;2023-07-31T10:19:40;22.40;99.90
10848;DHT22;5477;48.806;9.154;2023-07-31T10:22:08;22.40;99.90
10848;DHT22;5477;48.806;9.154;2023-07-31T10:24:40;22.40;99.90
10848;DHT22;5477;48.806;9.154;2023-07-31T10:27:10;22.30;99.90
10848;DHT22;5477;48.806;9.154;2023-07-31T10:29:39;22.40;99.90
10848;DHT22;5477;48.806;9.154;2023-07-31T10:32:09;22.50;99.90
10848;DHT22;5477;48.806;9.154;2023-07-31T10:34:40;22.50;99.90
10848;DHT22;5477;48.806;9.154;2023-07-31T10:37:24;22.50;99.90
10848;DHT22;5477;48.806;9.154;2023-07-31T10:40:00;22.60;99.90
10848;DHT22;5477;48.806;9.154;2023-07-31T10:42:34;22.70;99.90
10848;DHT22;5477;48.806;9.154;2023-07-31T10:45:04;22.80;99.90
10848;DHT22;5477;48.806;9.154;2023-07-31T10:47:37;22.80;99.90
10848;DHT22;5477;48.806;9.154;2023-07-31T10:50:13;23.10;99.90
10848;DHT22;5477;48.806;9.154;2023-07-31T10:52:44;23.40;99.90
10848;DHT22;5477;48.806;9.154;2023-07-31T10:55:27;23.70;99.90
10848;DHT22;5477;48.806;9.154;2023-07-31T10:57:58;23.60;99.90
10848;DHT22;5477;48.806;9.154;2023-07-31T11:00:27;23.70;99.90
10848;DHT22;5477;48.806;9.154;2023-07-31T11:03:00;23.50;99.90
10848;DHT22;5477;48.806;9.154;2023-07-31T11:05:50;23.60;99.90
10848;DHT22;5477;48.806;9.154;2023-07-31T11:08:21;23.30;99.90
10848;DHT22;5477;48.806;9.154;2023-07-31T11:10:51;23.30;99.90
10848;DHT22;5477;48.806;9.154;2023-07-31T11:13:34;23.40;99.90
10848;DHT22;5477;48.806;9.154;2023-07-31T11:16:07;23.50;99.90
10848;DHT22;5477;48.806;9.154;2023-07-31T11:18:35;23.60;99.90
10848;DHT22;5477;48.806;9.154;2023-07-31T11:21:03;23.60;99.90
10848;DHT22;5477;48.806;9.154;2023-07-31T11:23:31;23.80;99.80
10848;DHT22;5477;48.806;9.154;2023-07-31T11:26:00;24.00;99.60
10848;DHT22;5477;48.806;9.154;2023-07-31T11:28:33;24.00;99.90
10848;DHT22;5477;48.806;9.154;2023-07-31T11:31:02;24.20;99.90
10848;DHT22;5477;48.806;9.154;2023-07-31T11:33:30;24.70;99.90
10848;DHT22;5477;48.806;9.154;2023-07-31T11:35:58;24.60;98.80
10848;DHT22;5477;48.806;9.154;2023-07-31T11:38:28;24.40;99.20
10848;DHT22;5477;48.806;9.154;2023-07-31T11:40:57;24.10;99.90
10848;DHT22;5477;48.806;9.154;2023-07-31T11:43:25;23.80;99.90
10848;DHT22;5477;48.806;9.154;2023-07-31T11:45:56;23.70;99.90
10848;DHT22;5477;48.806;9.154;2023-07-31T11:48:26;23.70;99.90
10848;DHT22;5477;48.806;9.154;2023-07-31T11:50:57;23.60;99.90
10848;DHT22;5477;48.806;9.154;2023-07-31T11:53:28;23.50;99.90
10848;DHT22;5477;48.806;9.154;2023-07-31T11:55:58;23.70;99.90
10848;DHT22;5477;48.806;9.154;2023-07-31T11:58:27;23.60;99.90
10848;DHT22;5477;48.806;9.154;2023-07-31T12:00:57;23.70;99.90
10848;DHT22;5477;48.806;9.154;2023-07-31T12:03:26;23.80;99.90
10848;DHT22;5477;48.806;9.154;2023-07-31T12:05:54;23.60;99.90
10848;DHT22;5477;48.806;9.154;2023-07-31T12:08:23;23.60;99.90
10848;DHT22;5477;48.806;9.154;2023-07-31T12:10:52;23.60;99.90
10848;DHT22;5477;48.806;9.154;2023-07-31T12:13:21;23.60;99.90
10848;DHT22;5477;48.806;9.154;2023-07-31T12:15:54;23.50;99.90
10848;DHT22;5477;48.806;9.154;2023-07-31T12:18:25;23.50;99.90
10848;DHT22;5477;48.806;9.154;2023-07-31T12:20:55;23.60;99.90
10848;DHT22;5477;48.806;9.154;2023-07-31T12:23:25;23.70;99.90
10848;DHT22;5477;48.806;9.154;2023-07-31T12:26:02;23.80;99.90
10848;DHT22;5477;48.806;9.154;2023-07-31T12:28:32;23.80;99.90
10848;DHT22;5477;48.806;9.154;2023-07-31T12:31:02;23.70;99.90
10848;DHT22;5477;48.806;9.154;2023-07-31T12:33:32;23.60;99.90
10848;DHT22;5477;48.806;9.154;2023-07-31T12:36:02;23.60;99.90
10848;DHT22;5477;48.806;9.154;2023-07-31T12:38:30;23.70;99.90
10848;DHT22;5477;48.806;9.154;2023-07-31T12:40:58;23.40;99.90
10848;DHT22;5477;48.806;9.154;2023-07-31T12:43:26;23.40;99.90
10848;DHT22;5477;48.806;9.154;2023-07-31T12:45:55;23.30;99.90
10848;DHT22;5477;48.806;9.154;2023-07-31T12:48:23;23.20;99.90
10848;DHT22;5477;48.806;9.154;2023-07-31T12:50:53;23.20;99.90
10848;DHT22;5477;48.806;9.154;2023-07-31T12:53:21;23.30;99.90
10848;DHT22;5477;48.806;9.154;2023-07-31T12:55:49;23.10;99.90
10848;DHT22;5477;48.806;9.154;2023-07-31T12:58:17;23.10;99.90
10848;DHT22;5477;48.806;9.154;2023-07-31T13:00:45;22.90;99.90
10848;DHT22;5477;48.806;9.154;2023-07-31T13:03:13;22.90;99.90
10848;DHT22;5477;48.806;9.154;2023-07-31T13:05:41;22.90;99.90
10848;DHT22;5477;48.806;9.154;2023-07-31T13:08:11;22.90;99.90
10848;DHT22;5477;48.806;9.154;2023-07-31T13:10:39;23.00;99.90
10848;DHT22;5477;48.806;9.154;2023-07-31T13:13:07;22.90;99.90
10848;DHT22;5477;48.806;9.154;2023-07-31T13:15:35;22.90;99.90
10848;DHT22;5477;48.806;9.154;2023-07-31T13:18:03;22.90;99.90
10848;DHT22;5477;48.806;9.154;2023-07-31T13:20:31;23.00;99.90
10848;DHT22;5477;48.806;9.154;2023-07-31T13:22:59;23.00;99.90
10848;DHT22;5477;48.806;9.154;2023-07-31T13:25:29;23.00;99.90
10848;DHT22;5477;48.806;9.154;2023-07-31T13:27:57;23.00;99.90
10848;DHT22;5477;48.806;9.154;2023-07-31T13:30:29;23.10;99.90
10848;DHT22;5477;48.806;9.154;2023-07-31T13:32:57;23.30;99.90
10848;DHT22;5477;48.806;9.154;2023-07-31T13:35:25;23.70;99.90
10848;DHT22;5477;48.806;9.154;2023-07-31T13:37:53;24.00;99.90
10848;DHT22;5477;48.806;9.154;2023-07-31T13:40:21;24.50;99.90
10848;DHT22;5477;48.806;9.154;2023-07-31T13:42:50;25.50;98.60
10848;DHT22;5477;48.806;9.154;2023-07-31T13:45:19;25.90;97.70
10848;DHT22;5477;48.806;9.154;2023-07-31T13:47:47;25.80;96.80
10848;DHT22;5477;48.806;9.154;2023-07-31T13:50:15;25.30;97.30
10848;DHT22;5477;48.806;9.154;2023-07-31T13:52:43;25.00;97.80
10848;DHT22;5477;48.806;9.154;2023-07-31T13:55:11;24.50;98.40
10848;DHT22;5477;48.806;9.154;2023-07-31T13:57:39;24.50;99.00
10848;DHT22;5477;48.806;9.154;2023-07-31T14:00:10;24.60;99.40
10848;DHT22;5477;48.806;9.154;2023-07-31T14:02:38;24.60;99.00
10848;DHT22;5477;48.806;9.154;2023-07-31T14:05:06;24.40;99.30
10848;DHT22;5477;48.806;9.154;2023-07-31T14:07:36;24.30;99.00
10848;DHT22;5477;48.806;9.154;2023-07-31T14:10:05;24.00;99.10
10848;DHT22;5477;48.806;9.154;2023-07-31T14:12:33;23.80;99.60
10848;DHT22;5477;48.806;9.154;2023-07-31T14:15:10;23.80;99.90
10848;DHT22;5477;48.806;9.154;2023-07-31T14:17:38;23.90;99.90
10848;DHT22;5477;48.806;9.154;2023-07-31T14:20:08;24.00;99.70
10848;DHT22;5477;48.806;9.154;2023-07-31T14:22:37;24.10;99.90
10848;DHT22;5477;48.806;9.154;2023-07-31T14:25:06;24.40;99.90
10848;DHT22;5477;48.806;9.154;2023-07-31T14:27:36;24.90;99.50
10848;DHT22;5477;48.806;9.154;2023-07-31T14:30:06;25.30;98.20
10848;DHT22;5477;48.806;9.154;2023-07-31T14:32:35;25.70;97.80
10848;DHT22;5477;48.806;9.154;2023-07-31T14:35:04;26.00;97.30
10848;DHT22;5477;48.806;9.154;2023-07-31T14:37:37;25.80;97.50
10848;DHT22;5477;48.806;9.154;2023-07-31T14:40:06;25.90;97.00
10848;DHT22;5477;48.806;9.154;2023-07-31T14:42:35;25.90;97.10
10848;DHT22;5477;48.806;9.154;2023-07-31T14:45:04;25.80;96.50
10848;DHT22;5477;48.806;9.154;2023-07-31T14:47:32;25.60;97.20
10848;DHT22;5477;48.806;9.154;2023-07-31T14:50:02;25.90;97.00
10848;DHT22;5477;48.806;9.154;2023-07-31T14:52:31;26.00;97.20
10848;DHT22;5477;48.806;9.154;2023-07-31T14:54:59;26.00;96.70
10848;DHT22;5477;48.806;9.154;2023-07-31T14:57:27;25.70;97.10
10848;DHT22;5477;48.806;9.154;2023-07-31T14:59:54;25.70;97.50
10848;DHT22;5477;48.806;9.154;2023-07-31T15:02:23;25.30;97.50
10848;DHT22;5477;48.806;9.154;2023-07-31T15:04:51;24.90;98.70
10848;DHT22;5477;48.806;9.154;2023-07-31T15:07:20;25.10;99.00
10848;DHT22;5477;48.806;9.154;2023-07-31T15:09:48;25.50;98.20
10848;DHT22;5477;48.806;9.154;2023-07-31T15:12:17;25.70;97.40
10848;DHT22;5477;48.806;9.154;2023-07-31T15:14:45;25.80;96.90
10848;DHT22;5477;48.806;9.154;2023-07-31T15:17:13;25.60;97.00
10848;DHT22;5477;48.806;9.154;2023-07-31T15:19:41;25.30;96.70
10848;DHT22;5477;48.806;9.154;2023-07-31T15:22:09;25.30;97.30
10848;DHT22;5477;48.806;9.154;2023-07-31T15:24:38;25.40;97.00
10848;DHT22;5477;48.806;9.154;2023-07-31T15:27:07;25.70;96.70
10848;DHT22;5477;48.806;9.154;2023-07-31T15:29:35;26.10;96.00
10848;DHT22;5477;48.806;9.154;2023-07-31T15:32:05;26.00;95.30
10848;DHT22;5477;48.806;9.154;2023-07-31T15:34:33;26.00;95.50
10848;DHT22;5477;48.806;9.154;2023-07-31T15:37:01;26.20;94.80
10848;DHT22;5477;48.806;9.154;2023-07-31T15:39:29;26.40;94.80
10848;DHT22;5477;48.806;9.154;2023-07-31T15:41:58;26.60;94.10
10848;DHT22;5477;48.806;9.154;2023-07-31T15:44:26;26.60;93.80
10848;DHT22;5477;48.806;9.154;2023-07-31T15:46:54;26.30;93.40
10848;DHT22;5477;48.806;9.154;2023-07-31T15:49:22;26.30;93.70
10848;DHT22;5477;48.806;9.154;2023-07-31T15:51:50;26.60;93.80
10848;DHT22;5477;48.806;9.154;2023-07-31T15:54:18;26.60;92.90
10848;DHT22;5477;48.806;9.154;2023-07-31T15:56:46;26.70;93.20